Latest Weather Observations for Dubbo

IDN60801

Issued at 8:03 pm EST Monday 26 September 2016 (issued every 30 minutes, with the page automatically refreshed every 10 minutes)

About weather observations | Map of weather stations | Latest weather observations for NSW | Other Formats
Station Details ID: 065070 Name: DUBBO AIRPORT AWS Lat: -32.22 Lon: 148.58 Height: 284.0 m
Data from the previous 72 hours. | See also: Recent months at Dubbo
Date/Time
EST
Temp
°C
App
Temp
°C
Dew
Point
°C
Rel
Hum
%
Delta-T
°C
Wind Press
QNH
hPa
Press
MSL
hPa
Rain since
9am
mm
Dir  Spd
km/h
Gust
km/h
Spd
kts
Gust
kts
26/08:00pm 8.2 7.2 5.7 84 1.1 CALM 0 0 0 0 1015.0 1014.8 0.0
26/07:30pm 7.9 6.9 5.4 84 1.1 CALM 0 9 0 5 1014.9 1014.7 0.0
26/07:00pm 10.1 9.2 6.1 76 1.9 CALM 0 6 0 3 1014.7 1014.5 0.0
26/06:30pm 10.6 7.9 5.6 71 2.3 WSW 9 11 5 6 1014.7 1014.5 0.0
26/06:00pm 12.6 9.0 5.1 60 3.5 WSW 13 17 7 9 1014.6 1014.4 0.0
26/05:30pm 14.1 10.2 5.5 56 4.1 WSW 15 20 8 11 1014.1 1013.9 0.0
26/05:00pm 14.3 9.2 4.0 50 4.8 WSW 20 28 11 15 1013.9 1013.7 0.0
26/04:30pm 15.9 10.5 4.6 47 5.4 SW 22 28 12 15 1013.7 1013.5 0.0
26/04:00pm 15.0 9.7 5.0 51 4.8 WSW 22 28 12 15 1013.5 1013.3 0.0
26/03:30pm 14.9 10.3 5.7 54 4.5 SW 19 26 10 14 1013.4 1013.2 0.0
26/03:00pm 15.3 10.4 5.0 50 4.9 SW 20 30 11 16 1013.4 1013.2 0.0
26/02:30pm 14.9 9.6 4.9 51 4.8 WSW 22 28 12 15 1013.5 1013.3 0.0
26/02:00pm 15.6 10.2 4.6 48 5.2 W 22 35 12 19 1013.6 1013.4 0.0
26/01:30pm 15.9 11.1 4.6 47 5.4 W 19 30 10 16 1013.9 1013.7 0.0
26/01:00pm 16.0 11.3 5.9 51 4.9 WSW 20 26 11 14 1014.2 1014.0 0.0
26/12:30pm 15.9 11.4 6.1 52 4.8 SW 19 28 10 15 1014.6 1014.4 0.0
26/12:00pm 15.9 11.8 7.7 58 4.2 WSW 19 30 10 16 1015.0 1014.8 0.0
26/11:30am 14.2 9.5 5.0 54 4.4 SSW 19 28 10 15 1015.5 1015.3 0.0
26/11:00am 14.4 9.8 6.3 58 4.0 SW 20 28 11 15 1015.8 1015.6 0.0
26/10:30am 14.3 10.1 5.7 56 4.1 SSW 17 28 9 15 1016.2 1016.0 0.0
26/10:00am 13.7 9.6 4.6 54 4.3 S 15 30 8 16 1016.3 1016.1 0.0
26/09:30am 13.8 10.0 5.9 59 3.8 SSW 15 24 8 13 1016.3 1016.1 0.0
26/09:00am 13.2 9.9 6.5 64 3.3 S 13 20 7 11 1016.2 1016.0 1.4
26/08:30am 11.7 10.2 8.6 81 1.6 NNE 6 9 3 5 1016.1 1015.9 1.4
26/08:00am 10.0 9.6 8.1 88 0.9 CALM 0 0 0 0 1016.0 1015.7 1.4
26/07:30am 8.2 7.6 7.6 96 0.3 CALM 0 0 0 0 1015.8 1015.6 1.4
26/07:11am 7.8 7.2 7.5 98 0.1 CALM 0 0 0 0 1015.8 1015.6 1.4
26/07:00am 6.8 6.0 6.5 98 0.1 CALM 0 0 0 0 1015.7 1015.5 1.4
26/06:30am 4.8 3.6 4.4 97 0.2 CALM 0 0 0 0 1015.5 1015.3 1.4
26/06:00am 4.1 2.7 3.7 97 0.2 CALM 0 0 0 0 1015.1 1014.9 1.2
26/05:30am 3.8 2.4 3.4 97 0.2 CALM 0 0 0 0 1015.2 1015.0 1.2
26/05:00am 4.4 3.1 4.0 97 0.2 CALM 0 0 0 0 1014.8 1014.6 1.2
26/04:30am 4.9 3.7 4.5 97 0.2 CALM 0 0 0 0 1014.8 1014.6 1.2
26/04:14am 4.8 3.5 4.2 96 0.3 CALM 0 0 0 0 1014.7 1014.5 1.2
26/04:00am 4.8 3.5 4.1 95 0.3 CALM 0 0 0 0 1014.5 1014.3 1.2
26/03:30am 6.0 4.9 5.3 95 0.3 CALM 0 0 0 0 1014.4 1014.2 1.2
26/03:00am 5.9 2.9 4.2 89 0.7 S 9 9 5 5 1014.5 1014.3 1.2
26/02:30am 7.2 4.5 5.8 91 0.6 S 9 11 5 6 1014.7 1014.5 1.2
26/02:00am 6.9 4.2 5.7 92 0.5 SSW 9 13 5 7 1015.0 1014.8 1.2
26/01:30am 7.2 4.5 5.7 90 0.7 SSW 9 13 5 7 1015.1 1014.9 1.2
26/01:00am 7.8 5.8 6.1 89 0.8 SSE 6 7 3 4 1015.2 1015.0 1.2
26/12:30am 8.8 6.4 6.8 87 0.9 S 9 13 5 7 1015.2 1015.0 1.2
26/12:00am 8.1 4.9 6.7 91 0.7 SW 13 15 7 8 1014.9 1014.7 1.2
 
Date/Time
EST
Temp
°C
App
Temp
°C
Dew
Point
°C
Rel
Hum
%
Delta-T
°C
Wind Press
QNH
hPa
Press
MSL
hPa
Rain since
9am
mm
Dir  Spd
km/h
Gust
km/h
Spd
kts
Gust
kts
25/11:30pm 8.6 5.6 7.5 93 0.5 SW 13 15 7 8 1014.6 1014.4 1.2
25/11:00pm 8.3 6.5 7.2 93 0.5 WNW 6 7 3 4 1014.7 1014.5 1.2
25/10:30pm 8.1 5.6 6.7 91 0.7 WSW 9 11 5 6 1014.4 1014.2 1.2
25/10:00pm 9.0 7.1 7.6 91 0.7 SW 7 9 4 5 1014.2 1014.0 1.2
25/09:30pm 9.2 7.1 8.3 94 0.4 SSW 9 9 5 5 1014.0 1013.8 1.2
25/09:00pm 9.8 7.7 8.2 90 0.8 WSW 9 11 5 6 1014.2 1014.0 1.2
25/08:30pm 10.1 8.1 8.7 91 0.7 WSW 9 11 5 6 1014.2 1014.0 1.2
25/08:00pm 10.5 8.1 8.6 88 0.9 SSW 11 11 6 6 1013.6 1013.4 1.2
25/07:30pm 11.4 9.9 9.0 85 1.2 WSW 7 9 4 5 1013.1 1012.9 1.2
25/07:00pm 11.9 9.6 8.9 82 1.5 SW 11 13 6 7 1012.4 1012.1 1.2
25/06:30pm 12.9 9.5 9.2 78 1.9 SSW 17 26 9 14 1011.8 1011.6 1.2
25/06:00pm 13.9 10.0 8.7 71 2.7 SSW 19 26 10 14 1011.3 1011.1 1.2
25/05:30pm 15.2 10.8 8.9 66 3.3 SSW 22 32 12 17 1011.1 1010.9 1.2
25/05:00pm 16.1 10.0 9.8 66 3.3 SW 32 43 17 23 1010.9 1010.7 1.2
25/04:30pm 16.9 12.6 10.7 67 3.4 SW 24 35 13 19 1010.5 1010.3 1.2
25/04:00pm 16.3 10.8 10.4 68 3.2 SSW 30 41 16 22 1010.4 1010.2 1.2
25/03:34pm 16.9 13.9 13.6 81 1.9 SSW 22 32 12 17 1010.2 1010.0 1.2
25/03:30pm 16.1 12.5 13.0 82 1.7 S 24 35 13 19 1010.2 1010.0 1.2
25/03:24pm 14.9 10.2 11.9 82 1.6 SSW 28 35 15 19 1010.2 1010.0 1.2
25/03:00pm 18.0 13.2 11.6 66 3.6 SW 28 39 15 21 1009.9 1009.6 0.0
25/02:30pm 17.2 13.4 12.3 73 2.7 SW 24 33 13 18 1009.7 1009.4 0.0
25/02:00pm 15.0 10.1 11.2 78 2.1 SW 28 37 15 20 1009.8 1009.5 0.0
25/01:30pm 17.3 14.1 11.3 68 3.3 SW 19 30 10 16 1009.5 1009.2 0.0
25/01:00pm 17.6 14.4 11.9 69 3.2 WSW 20 32 11 17 1009.7 1009.4 0.0
25/12:30pm 16.4 12.8 11.8 74 2.5 WSW 22 28 12 15 1009.7 1009.4 0.0
25/12:00pm 16.4 12.8 11.8 74 2.5 WSW 22 33 12 18 1009.8 1009.5 0.0
25/11:30am 15.7 12.1 11.9 78 2.1 WSW 22 32 12 17 1010.0 1009.8 0.0
25/11:00am 14.2 10.4 11.2 82 1.6 SW 22 30 12 16 1009.9 1009.6 0.0
25/10:30am 14.6 13.2 11.0 79 1.9 WSW 9 13 5 7 1010.0 1009.8 0.0
25/10:00am 14.4 13.1 11.4 82 1.6 W 9 13 5 7 1009.9 1009.6 0.0
25/09:57am 14.2 12.9 11.4 83 1.5 WSW 9 15 5 8 1009.9 1009.6 0.0
25/09:36am 13.6 13.2 11.1 85 1.3 WSW 4 9 2 5 1009.8 1009.5 0.0
25/09:30am 13.7 13.3 11.0 84 1.4 SW 4 7 2 4 1009.9 1009.6 0.0
25/09:00am 13.1 11.4 11.2 88 1.0 SE 11 15 6 8 1009.6 1009.3 14.0
25/08:30am 12.2 10.3 10.6 90 0.8 SE 11 15 6 8 1009.7 1009.4 14.0
25/08:00am 11.7 9.5 10.8 94 0.5 ESE 13 17 7 9 1009.4 1009.1 14.0
25/07:32am 11.4 8.4 10.6 95 0.4 SE 17 20 9 11 1009.3 1009.0 13.8
25/07:30am 11.4 8.8 10.6 95 0.4 SE 15 20 8 11 1009.3 1009.0 13.6
25/07:13am 11.4 8.4 10.6 95 0.4 SE 17 20 9 11 1009.2 1008.9 12.8
25/07:00am 11.5 9.7 10.7 95 0.4 SSE 11 17 6 9 1009.3 1009.0 12.0
25/06:30am 11.4 8.7 10.5 94 0.5 SE 15 20 8 11 1008.8 1008.5 10.4
25/06:00am 11.9 10.2 11.1 95 0.4 SSE 11 15 6 8 1008.8 1008.5 8.8
25/05:55am 12.0 9.9 11.2 95 0.4 SSE 13 15 7 8 1008.8 1008.5 8.6
25/05:39am 12.1 10.9 11.5 96 0.3 SSE 9 13 5 7 1008.4 1008.2 7.6
25/05:30am 12.1 10.5 11.5 96 0.3 SE 11 17 6 9 1008.3 1008.1 6.6
25/05:11am 12.2 11.0 11.6 96 0.3 ESE 9 13 5 7 1008.1 1007.9 6.0
25/05:00am 12.2 11.0 11.6 96 0.3 ESE 9 13 5 7 1008.0 1007.8 5.4
25/04:56am 12.3 11.1 11.7 96 0.3 ESE 9 13 5 7 1008.0 1007.8 5.2
25/04:37am 12.5 11.0 11.9 96 0.3 SE 11 13 6 7 1007.9 1007.7 4.2
25/04:30am 12.6 11.1 12.0 96 0.3 SE 11 13 6 7 1007.9 1007.7 4.0
25/04:13am 12.6 11.1 12.0 96 0.3 SSE 11 13 6 7 1007.9 1007.7 3.6
25/04:07am 12.6 11.1 12.0 96 0.3 SSE 11 15 6 8 1007.9 1007.7 3.6
25/04:00am 12.6 11.1 11.8 95 0.4 SSE 11 13 6 7 1008.0 1007.8 3.4
25/03:48am 12.8 12.1 12.0 95 0.4 SSE 7 11 4 6 1008.1 1007.9 2.8
25/03:47am 12.8 12.2 12.2 96 0.3 SSE 7 11 4 6 1008.1 1007.9 2.8
25/03:33am 13.0 12.4 12.4 96 0.3 SSE 7 11 4 6 1008.0 1007.8 2.0
25/03:30am 12.9 12.2 12.1 95 0.4 SE 7 11 4 6 1008.0 1007.8 2.0
25/03:00am 12.6 11.8 11.7 94 0.5 ENE 7 9 4 5 1007.8 1007.6 1.2
25/02:30am 12.5 11.3 11.6 94 0.5 E 9 11 5 6 1007.8 1007.6 1.2
25/02:00am 12.8 13.4 11.9 94 0.5 CALM 0 0 0 0 1008.4 1008.2 1.2
25/01:30am 13.1 13.7 11.8 92 0.7 CALM 0 0 0 0 1008.9 1008.6 1.2
25/01:00am 13.3 13.8 11.7 90 0.9 CALM 0 0 0 0 1009.2 1008.9 0.8
25/12:30am 13.4 14.0 11.8 90 0.9 CALM 0 0 0 0 1009.5 1009.2 0.6
25/12:00am 13.6 13.3 11.3 86 1.2 NNW 4 7 2 4 1009.1 1008.8 0.4
 
Date/Time
EST
Temp
°C
App
Temp
°C
Dew
Point
°C
Rel
Hum
%
Delta-T
°C
Wind Press
QNH
hPa
Press
MSL
hPa
Rain since
9am
mm
Dir  Spd
km/h
Gust
km/h
Spd
kts
Gust
kts
24/11:30pm 13.9 13.1 11.6 86 1.2 NW 7 9 4 5 1009.7 1009.4 0.2
24/11:00pm 13.2 13.1 10.9 86 1.2 N 2 7 1 4 1009.9 1009.6 0.2
24/10:30pm 13.6 14.0 11.3 86 1.2 CALM 0 0 0 0 1010.0 1009.8 0.0
24/10:00pm 13.6 14.0 11.1 85 1.3 CALM 0 0 0 0 1010.1 1009.9 0.0
24/09:30pm 13.8 14.2 11.1 84 1.4 CALM 0 6 0 3 1010.1 1009.9 0.0
24/09:00pm 13.6 14.0 11.3 86 1.2 CALM 0 4 0 2 1009.8 1009.5 0.0
24/08:30pm 13.1 12.0 10.6 85 1.3 NNE 7 9 4 5 1010.0 1009.8 0.0
24/08:00pm 13.5 13.5 9.9 79 1.9 CALM 0 6 0 3 1010.0 1009.8 0.0
24/07:30pm 14.5 13.4 9.9 74 2.4 WSW 6 7 3 4 1010.1 1009.9 0.0
24/07:00pm 14.4 13.3 10.0 75 2.3 WSW 6 7 3 4 1010.0 1009.8 0.0
24/06:30pm 14.5 12.8 9.9 74 2.4 WSW 9 11 5 6 1009.9 1009.6 0.0
24/06:00pm 15.4 13.3 9.7 69 3.0 W 11 13 6 7 1010.1 1009.9 0.0
24/05:30pm 17.2 14.5 8.9 58 4.4 WNW 13 17 7 9 1009.8 1009.5 0.0
24/05:00pm 18.7 15.6 8.9 53 5.2 NW 15 20 8 11 1009.8 1009.5 0.0
24/04:30pm 19.3 16.4 9.8 54 5.1 NW 15 20 8 11 1009.6 1009.3 0.0
24/04:00pm 19.4 15.5 8.7 50 5.7 NW 19 24 10 13 1009.5 1009.2 0.0
24/03:30pm 20.0 16.8 10.1 53 5.4 NW 17 22 9 12 1009.4 1009.1 0.0
24/03:00pm 20.2 16.7 10.3 53 5.4 NW 19 26 10 14 1009.5 1009.2 0.0
24/02:30pm 20.1 16.5 9.7 51 5.6 NW 19 24 10 13 1009.6 1009.3 0.0
24/02:00pm 20.0 16.5 10.1 53 5.4 NW 19 30 10 16 1009.7 1009.4 0.0
24/01:30pm 20.0 17.8 10.7 55 5.1 WNW 13 24 7 13 1010.2 1010.0 0.0
24/01:00pm 19.9 16.3 10.6 55 5.1 NNW 20 28 11 15 1010.9 1010.7 0.0
24/12:30pm 18.5 16.5 10.1 58 4.5 NNW 11 19 6 10 1011.2 1011.0 0.0
24/12:00pm 19.3 17.6 11.3 60 4.4 N 11 19 6 10 1011.2 1011.0 0.0
24/11:30am 18.3 17.8 10.7 61 4.1 N 4 9 2 5 1011.4 1011.2 0.0
24/11:00am 18.1 16.5 10.2 60 4.3 WNW 9 15 5 8 1012.3 1012.0 0.0
24/10:30am 18.0 16.8 11.6 66 3.5 NW 9 15 5 8 1012.8 1012.5 0.0
24/10:00am 16.6 14.9 10.0 65 3.5 N 9 11 5 6 1013.1 1012.9 0.0
24/09:30am 15.7 14.6 10.0 69 3.0 N 6 9 3 5 1013.4 1013.2 0.0
24/09:00am 14.6 13.8 11.7 83 1.6 NE 7 11 4 6 1013.9 1013.7 0.0
24/08:30am 12.8 11.8 10.9 88 1.0 ENE 7 9 4 5 1014.1 1013.9 0.0
24/08:00am 11.7 10.7 10.3 91 0.7 E 6 7 3 4 1014.2 1014.0 0.0
24/07:30am 10.6 10.7 10.3 98 0.2 CALM 0 7 0 4 1014.2 1014.0 0.0
24/07:00am 8.5 7.7 8.2 98 0.1 SE 2 7 1 4 1014.1 1013.9 0.0
24/06:30am 6.8 6.0 6.5 98 0.1 CALM 0 0 0 0 1013.6 1013.4 0.0
24/06:20am 6.3 5.4 5.9 97 0.2 CALM 0 0 0 0 1013.4 1013.2 0.0
24/06:00am 5.6 4.5 5.2 97 0.2 CALM 0 0 0 0 1013.1 1012.9 0.0
24/05:59am 5.6 4.5 5.2 97 0.2 CALM 0 0 0 0 1013.1 1012.9 0.0
24/05:30am 5.9 4.1 5.5 97 0.2 ESE 4 7 2 4 1012.7 1012.4 0.0
24/05:16am 6.8 4.7 6.5 98 0.1 E 7 9 4 5 1012.5 1012.2 0.0
24/05:11am 6.9 4.8 6.6 98 0.1 E 7 9 4 5 1012.5 1012.2 0.0
24/05:00am 6.4 3.8 6.0 97 0.2 E 9 11 5 6 1012.5 1012.2 0.0
24/04:57am 6.5 3.9 6.1 97 0.2 E 9 11 5 6 1012.5 1012.2 0.0
24/04:31am 6.6 3.6 6.2 97 0.2 E 11 13 6 7 1012.3 1012.0 0.0
24/04:30am 6.4 3.4 6.0 97 0.2 E 11 13 6 7 1012.3 1012.0 0.0
24/04:00am 6.3 5.3 5.7 96 0.3 CALM 0 0 0 0 1012.3 1012.0 0.0
24/03:30am 6.8 5.5 6.2 96 0.3 NE 2 6 1 3 1012.1 1011.9 0.0
24/03:13am 7.0 5.0 6.3 95 0.3 E 6 7 3 4 1012.1 1011.9 0.0
24/03:00am 7.0 4.4 6.3 95 0.3 ESE 9 11 5 6 1012.1 1011.9 0.0
24/02:30am 7.7 4.6 7.1 96 0.3 SE 13 13 7 7 1012.3 1012.0 0.0
24/02:00am 8.3 4.9 7.7 96 0.3 SE 15 17 8 9 1012.4 1012.1 0.0
24/01:30am 7.7 5.7 7.1 96 0.3 SSE 7 9 4 5 1012.7 1012.4 0.0
24/01:00am 8.3 7.0 7.7 96 0.3 E 4 9 2 5 1012.7 1012.4 0.0
24/12:30am 9.2 8.9 8.7 97 0.2 CALM 0 0 0 0 1012.9 1012.6 0.0
24/12:00am 8.4 7.9 7.8 96 0.3 CALM 0 0 0 0 1012.9 1012.6 0.0
 
Date/Time
EST
Temp
°C
App
Temp
°C
Dew
Point
°C
Rel
Hum
%
Delta-T
°C
Wind Press
QNH
hPa
Press
MSL
hPa
Rain since
9am
mm
Dir  Spd
km/h
Gust
km/h
Spd
kts
Gust
kts
23/11:58pm 8.5 8.0 7.9 96 0.3 CALM 0 0 0 0 1012.9 1012.6 0.0
23/11:30pm 9.3 8.3 8.7 96 0.3 NE 4 7 2 4 1012.9 1012.6 0.0
23/11:18pm 9.4 8.8 8.9 97 0.2 NNE 2 7 1 4 1012.9 1012.6 0.0
23/11:00pm 8.7 8.1 7.6 93 0.5 CALM 0 0 0 0 1013.0 1012.7 0.0
23/10:30pm 9.4 9.1 8.5 94 0.4 CALM 0 0 0 0 1013.2 1013.0 0.0
23/10:00pm 9.9 9.6 8.8 93 0.5 CALM 0 0 0 0 1013.5 1013.3 0.0
23/09:30pm 10.2 9.9 8.8 91 0.7 CALM 0 0 0 0 1013.5 1013.3 0.0
23/09:00pm 10.4 10.1 8.7 89 0.8 CALM 0 0 0 0 1013.5 1013.3 0.0
23/08:30pm 11.5 11.3 8.9 84 1.3 CALM 0 0 0 0 1013.5 1013.3 0.0

Other Formats:

Comma delimited format used in spreadsheet applications
http://www.bom.gov.au/fwo/IDN60801/IDN60801.95719.axf

JavaScript Object Notation format (JSON) in row-major order
http://www.bom.gov.au/fwo/IDN60801/IDN60801.95719.json